Time;durP1;ratioP1;P1;durP2;ratioP2;P2;SDS_P1;SDS_P2;PMS_P1;PMS_P2;Temp;Humidity;BMP_temperature;BMP_pressure;BME280_temperature;BME280_humidity;BME280_pressure;Samples;Min_cycle;Max_cycle;Signal;HPM_P1;HPM_P2
2021/06/19 00:00:11;;;;;;;;;22.00;22.00;;;;;26.33;46.46;98902.00;6177367;28;125965;-62
2021/06/19 00:03:16;;;;;;;;;21.60;21.00;;;;;26.29;46.47;98898.25;6181774;28;124919;-62
2021/06/19 00:06:19;;;;;;;;;23.80;21.00;;;;;26.24;46.83;98893.66;6185668;28;125606;-62
2021/06/19 00:09:23;;;;;;;;;22.25;21.25;;;;;26.29;46.46;98893.50;6185884;28;125010;-62
2021/06/19 00:12:27;;;;;;;;;23.75;22.00;;;;;26.34;46.53;98900.03;6180012;28;126126;-62
2021/06/19 00:15:30;;;;;;;;;22.00;21.00;;;;;26.30;46.70;98903.44;6168963;28;124470;-62
2021/06/19 00:18:34;;;;;;;;;23.00;21.00;;;;;26.29;46.96;98901.03;6185387;28;123797;-62
2021/06/19 00:21:37;;;;;;;;;24.00;23.40;;;;;26.27;46.66;98903.28;6184310;28;126331;-62
2021/06/19 00:24:42;;;;;;;;;22.00;21.00;;;;;26.27;46.45;98901.34;6179940;28;124939;-62
2021/06/19 00:27:46;;;;;;;;;24.40;23.00;;;;;26.22;46.81;98904.25;6186010;28;124885;-62
2021/06/19 00:30:49;;;;;;;;;21.80;20.80;;;;;26.10;46.68;98883.88;6186449;28;125598;-62
2021/06/19 00:33:52;;;;;;;;;24.00;23.00;;;;;26.21;46.78;98901.78;6173790;28;124042;-62
2021/06/19 00:36:55;;;;;;;;;22.00;22.00;;;;;26.19;46.77;98895.78;6194290;28;125425;-62
2021/06/19 00:40:00;;;;;;;;;26.00;22.50;;;;;26.15;46.92;98901.09;6184660;28;125046;-62
2021/06/19 00:43:05;;;;;;;;;26.00;24.00;;;;;26.11;46.97;98891.84;6183606;28;125983;-62
2021/06/19 00:46:08;;;;;;;;;24.80;23.00;;;;;26.05;47.12;98893.13;6183416;28;126785;-62
2021/06/19 00:49:11;;;;;;;;;20.60;20.00;;;;;25.93;47.17;98873.63;6184631;28;126566;-62
2021/06/19 00:52:14;;;;;;;;;21.00;20.00;;;;;25.94;47.28;98878.03;6185644;28;127656;-62
2021/06/19 00:55:20;;;;;;;;;24.00;23.00;;;;;25.86;47.43;98876.84;6182521;28;126105;-63
2021/06/19 00:58:23;;;;;;;;;25.00;23.00;;;;;25.88;47.41;98879.31;6176924;28;126075;-62
2021/06/19 01:01:26;;;;;;;;;21.00;21.00;;;;;25.85;47.67;98880.75;6185951;28;125185;-62
2021/06/19 01:04:29;;;;;;;;;23.00;22.00;;;;;25.81;47.67;98873.44;6183791;28;124957;-62
2021/06/19 01:07:33;;;;;;;;;23.00;21.20;;;;;25.77;47.87;98883.50;6183853;28;124778;-61
2021/06/19 01:10:37;;;;;;;;;23.00;23.00;;;;;25.71;48.03;98882.03;6176271;28;124968;-60
2021/06/19 01:13:40;;;;;;;;;24.25;23.00;;;;;25.72;47.84;98880.88;6165186;28;123980;-60
2021/06/19 01:16:48;;;;;;;;;24.00;23.00;;;;;25.68;47.87;98877.16;6182114;28;126010;-60
2021/06/19 01:20:00;;;;;;;;;22.25;20.75;;;;;25.59;48.00;98877.13;6184554;28;126174;-60
2021/06/19 01:23:04;;;;;;;;;21.40;21.00;;;;;25.52;48.32;98875.91;6184807;28;126446;-60
2021/06/19 01:26:09;;;;;;;;;22.75;21.00;;;;;25.49;48.27;98876.56;6182125;28;125973;-60
2021/06/19 01:29:12;;;;;;;;;24.60;24.00;;;;;25.43;48.57;98873.94;6185175;28;126218;-60
2021/06/19 01:32:16;;;;;;;;;23.00;23.00;;;;;25.38;48.62;98865.81;6184390;28;125796;-60
2021/06/19 01:35:20;;;;;;;;;26.00;24.00;;;;;25.33;48.71;98865.16;6186731;28;126762;-60
2021/06/19 01:38:23;;;;;;;;;25.00;23.60;;;;;25.27;48.95;98864.47;6186297;28;124684;-60
2021/06/19 01:41:30;;;;;;;;;24.00;23.00;;;;;25.21;49.23;98865.75;6184730;28;122982;-60
2021/06/19 01:44:34;;;;;;;;;25.00;23.25;;;;;25.12;49.22;98850.31;6186853;28;125837;-60
2021/06/19 01:47:38;;;;;;;;;24.00;23.00;;;;;25.18;49.10;98860.88;6168356;28;125008;-63
2021/06/19 01:50:41;;;;;;;;;25.00;24.00;;;;;25.17;49.16;98863.97;6185171;28;126165;-63
2021/06/19 01:53:46;;;;;;;;;24.00;23.00;;;;;25.11;49.29;98866.03;6185570;28;126119;-63
2021/06/19 01:56:51;;;;;;;;;24.40;23.60;;;;;25.02;49.56;98863.22;6186486;28;125097;-63
2021/06/19 02:00:00;;;;;;;;;27.60;25.00;;;;;24.98;49.58;98864.97;6185234;28;125012;-61
2021/06/19 02:03:08;;;;;;;;;28.40;26.00;;;;;24.94;49.71;98861.25;6182786;28;123514;-61
2021/06/19 02:06:12;;;;;;;;;27.20;25.00;;;;;24.89;49.74;98894.47;6184605;28;124979;-60
2021/06/19 02:09:16;;;;;;;;;24.60;23.60;;;;;24.78;50.24;98886.72;6184383;28;124614;-60
2021/06/19 02:12:21;;;;;;;;;23.80;22.40;;;;;24.74;50.24;98880.22;6184527;28;126671;-60
2021/06/19 02:15:25;;;;;;;;;26.00;25.00;;;;;24.69;50.15;98877.59;6170776;28;126775;-60
2021/06/19 02:18:28;;;;;;;;;28.00;25.00;;;;;24.62;50.40;98877.22;6180965;28;126010;-60
2021/06/19 02:21:31;;;;;;;;;27.00;25.00;;;;;24.48;50.69;98882.81;6176990;28;124962;-60
2021/06/19 02:24:35;;;;;;;;;24.60;23.40;;;;;24.45;50.58;98880.66;6185749;28;126257;-60
2021/06/19 02:27:46;;;;;;;;;26.00;25.00;;;;;24.34;50.85;98869.06;6185225;28;125105;-60
2021/06/19 02:30:53;;;;;;;;;28.00;25.00;;;;;24.36;51.09;98877.84;6183307;28;124700;-60
2021/06/19 02:33:57;;;;;;;;;26.20;24.00;;;;;24.34;50.91;98876.50;6184935;28;126790;-60
2021/06/19 02:37:00;;;;;;;;;22.00;21.00;;;;;24.31;50.84;98874.41;6186216;28;126734;-60
2021/06/19 02:40:05;;;;;;;;;22.60;22.00;;;;;24.28;51.14;98875.84;6173598;28;123863;-60
2021/06/19 02:43:11;;;;;;;;;24.00;23.00;;;;;24.28;50.78;98875.84;6183101;28;125954;-60
2021/06/19 02:46:14;;;;;;;;;26.00;25.50;;;;;24.29;50.67;98877.44;6185651;28;126286;-60
2021/06/19 02:49:17;;;;;;;;;24.00;22.40;;;;;24.28;50.78;98877.78;6170941;28;124898;-60
2021/06/19 02:52:21;;;;;;;;;25.25;25.00;;;;;24.26;51.18;98874.50;6182970;28;124948;-61
2021/06/19 02:55:26;;;;;;;;;25.20;24.20;;;;;24.25;51.15;98876.44;6182339;28;125664;-60
2021/06/19 02:58:31;;;;;;;;;25.20;25.00;;;;;24.27;51.19;98878.91;6183464;28;126393;-61
2021/06/19 03:01:34;;;;;;;;;26.00;24.00;;;;;24.11;51.31;98850.88;6181520;28;126225;-60
2021/06/19 03:04:38;;;;;;;;;26.00;25.20;;;;;24.30;51.07;98878.28;6182894;28;126535;-63
2021/06/19 03:07:41;;;;;;;;;25.00;23.80;;;;;24.36;51.04;98879.78;6185344;28;125911;-63
2021/06/19 03:10:45;;;;;;;;;27.00;26.00;;;;;24.42;50.85;98884.06;6182191;28;124896;-63
2021/06/19 03:13:49;;;;;;;;;23.00;22.25;;;;;24.44;50.59;98879.84;6178244;28;125585;-63
2021/06/19 03:16:54;;;;;;;;;25.40;24.40;;;;;24.50;50.72;98894.31;6184905;28;126171;-61
2021/06/19 03:19:58;;;;;;;;;26.00;25.00;;;;;24.54;50.59;98903.59;6183013;28;124809;-60
2021/06/19 03:23:02;;;;;;;;;25.00;24.00;;;;;24.58;50.35;98896.34;6186854;28;124907;-61
2021/06/19 03:26:06;;;;;;;;;26.00;24.60;;;;;24.61;50.20;98895.72;6189042;28;125567;-60
2021/06/19 03:29:10;;;;;;;;;25.00;24.00;;;;;24.60;50.25;98891.31;6189224;28;126410;-60
2021/06/19 03:32:13;;;;;;;;;23.00;22.80;;;;;24.60;50.45;98896.84;6186777;28;124776;-61
2021/06/19 03:35:18;;;;;;;;;24.40;22.60;;;;;24.60;50.14;98894.06;6189093;28;125017;-60
2021/06/19 03:38:21;;;;;;;;;22.80;21.80;;;;;24.62;50.18;98900.09;6186693;28;126175;-60
2021/06/19 03:41:25;;;;;;;;;26.00;25.40;;;;;24.62;50.04;98902.03;6187191;28;124787;-60
2021/06/19 03:44:30;;;;;;;;;24.60;24.00;;;;;24.62;49.94;98900.09;6181140;28;126711;-60
2021/06/19 03:47:33;;;;;;;;;23.20;22.20;;;;;24.60;50.47;98905.91;6187055;28;128339;-60
2021/06/19 03:50:37;;;;;;;;;25.00;24.00;;;;;24.65;50.12;98904.97;6188732;28;125824;-60
2021/06/19 03:53:40;;;;;;;;;25.00;23.00;;;;;24.72;50.27;98913.63;6188085;28;125904;-60
2021/06/19 03:56:43;;;;;;;;;28.00;25.40;;;;;24.82;49.79;98913.38;6173957;28;124779;-60
2021/06/19 03:59:48;;;;;;;;;23.25;22.75;;;;;24.90;49.45;98920.09;6187943;28;125899;-60
2021/06/19 04:02:52;;;;;;;;;25.50;24.00;;;;;24.91;49.59;98916.22;6187667;28;124645;-60
2021/06/19 04:05:55;;;;;;;;;25.00;23.00;;;;;24.93;49.52;98914.75;6188545;28;126426;-60
2021/06/19 04:08:58;;;;;;;;;23.00;23.00;;;;;25.03;49.52;98905.41;6187754;28;124624;-60
2021/06/19 04:12:01;;;;;;;;;25.00;24.00;;;;;25.06;49.33;98899.28;6187081;28;124893;-60
2021/06/19 04:15:08;;;;;;;;;24.00;23.00;;;;;25.09;49.29;98897.81;6187502;28;124725;-60
2021/06/19 04:18:11;;;;;;;;;24.00;22.20;;;;;25.19;49.04;98901.13;6188362;28;125571;-60
2021/06/19 04:21:14;;;;;;;;;25.40;24.40;;;;;25.13;49.35;98898.81;6188433;28;126773;-60
2021/06/19 04:24:17;;;;;;;;;24.00;23.00;;;;;25.19;48.98;98900.31;6180441;28;126213;-60
2021/06/19 04:27:21;;;;;;;;;24.60;22.60;;;;;25.30;49.10;98896.16;6170927;28;127273;-60
2021/06/19 04:30:27;;;;;;;;;25.00;23.00;;;;;25.41;48.75;98898.28;6185098;28;124662;-63
2021/06/19 04:33:30;;;;;;;;;22.80;22.20;;;;;25.53;48.51;98903.22;6172797;28;123891;-63
2021/06/19 04:36:34;;;;;;;;;24.00;23.60;;;;;25.63;48.63;98902.16;6180524;28;124293;-62
2021/06/19 04:39:40;;;;;;;;;25.00;24.00;;;;;25.74;48.10;98898.78;6185886;28;126714;-61
2021/06/19 04:42:46;;;;;;;;;21.50;21.50;;;;;25.83;48.05;98907.91;6181316;28;124349;-61
2021/06/19 04:45:51;;;;;;;;;24.00;23.00;;;;;25.99;47.93;98904.69;6177308;28;126041;-62
2021/06/19 04:48:54;;;;;;;;;24.00;22.20;;;;;26.10;47.78;98894.94;6180265;28;124811;-61
2021/06/19 04:51:58;;;;;;;;;24.00;24.00;;;;;26.20;47.75;98892.66;6187270;28;126115;-61
2021/06/19 04:55:01;;;;;;;;;24.40;23.40;;;;;26.23;47.45;98891.25;6182242;28;125957;-61
2021/06/19 04:58:05;;;;;;;;;22.60;21.00;;;;;26.36;46.63;98893.03;6184348;28;124741;-61
2021/06/19 05:01:09;;;;;;;;;21.80;20.80;;;;;26.29;46.92;98906.53;6186899;28;126395;-61
2021/06/19 05:04:12;;;;;;;;;22.00;22.00;;;;;26.34;47.01;98894.50;6187761;28;125948;-61
2021/06/19 05:07:16;;;;;;;;;23.40;22.40;;;;;26.34;47.22;98897.28;6179918;28;126364;-61
2021/06/19 05:10:19;;;;;;;;;22.00;21.00;;;;;26.47;47.10;98904.59;6186692;28;126358;-61
2021/06/19 05:13:23;;;;;;;;;26.50;24.00;;;;;26.56;46.85;98902.63;6169903;28;125040;-61
2021/06/19 05:16:28;;;;;;;;;25.75;23.00;;;;;26.57;46.72;98902.31;6181116;28;126249;-61
2021/06/19 05:19:31;;;;;;;;;27.00;22.50;;;;;26.58;47.18;98905.88;6187676;28;124707;-61
2021/06/19 05:22:36;;;;;;;;;21.00;20.20;;;;;26.72;46.67;98899.03;6169411;28;124841;-61
2021/06/19 05:25:39;;;;;;;;;24.00;23.00;;;;;26.82;46.18;98905.38;6186288;28;125931;-61
2021/06/19 05:28:43;;;;;;;;;22.00;22.00;;;;;26.81;46.24;98900.97;6186326;28;125677;-61
2021/06/19 05:31:47;;;;;;;;;24.40;21.80;;;;;26.74;46.49;98879.34;6179552;28;124794;-61
2021/06/19 05:34:51;;;;;;;;;20.60;20.00;;;;;27.01;46.28;98897.56;6186651;28;124708;-61
2021/06/19 05:37:54;;;;;;;;;22.75;21.50;;;;;27.10;45.89;98898.34;6184776;28;124322;-61
2021/06/19 05:40:57;;;;;;;;;22.00;22.00;;;;;27.08;45.52;98895.06;6174753;28;127089;-61
2021/06/19 05:44:00;;;;;;;;;20.60;20.00;;;;;27.19;45.61;98895.53;6180978;28;127513;-61
2021/06/19 05:47:07;;;;;;;;;21.00;20.00;;;;;27.12;45.37;98865.63;6174252;28;124953;-62
2021/06/19 05:50:16;;;;;;;;;22.00;20.40;;;;;27.42;44.94;98894.94;6170534;28;126095;-62
2021/06/19 05:53:20;;;;;;;;;22.50;21.00;;;;;27.56;45.51;98903.09;6179653;28;126031;-62
2021/06/19 05:56:23;;;;;;;;;22.25;21.00;;;;;27.75;45.05;98899.91;6169590;28;124070;-62
2021/06/19 05:59:26;;;;;;;;;22.80;20.00;;;;;27.92;44.51;98897.81;6174812;28;125009;-62
2021/06/19 06:02:31;;;;;;;;;18.60;18.20;;;;;27.90;44.18;98877.97;6174086;28;126007;-62
2021/06/19 06:05:34;;;;;;;;;21.00;20.00;;;;;28.21;43.96;98908.09;6176063;28;125759;-61
2021/06/19 06:08:37;;;;;;;;;19.60;18.00;;;;;28.28;43.45;98910.34;6178377;28;126913;-61
2021/06/19 06:11:40;;;;;;;;;23.00;21.00;;;;;28.36;43.77;98904.72;6186342;28;125163;-62
2021/06/19 06:14:44;;;;;;;;;20.60;19.60;;;;;28.54;43.00;98905.38;6186477;28;124822;-62
2021/06/19 06:17:48;;;;;;;;;22.00;20.00;;;;;28.70;43.19;98909.16;6185267;28;124912;-62
2021/06/19 06:20:52;;;;;;;;;22.00;22.00;;;;;28.90;43.02;98907.53;6186776;28;125854;-62
2021/06/19 06:23:55;;;;;;;;;22.00;20.00;;;;;29.08;42.53;98914.50;6184063;28;126843;-62
2021/06/19 06:26:59;;;;;;;;;19.80;19.00;;;;;29.07;42.66;98912.91;6167041;28;125213;-62
2021/06/19 06:30:03;;;;;;;;;19.40;18.40;;;;;29.19;42.38;98915.72;6176991;28;125973;-61
2021/06/19 06:33:08;;;;;;;;;18.00;17.00;;;;;29.33;41.81;98912.63;6185641;28;124858;-61
2021/06/19 06:36:11;;;;;;;;;18.40;18.40;;;;;29.46;41.51;98916.25;6186210;28;125651;-61
2021/06/19 06:39:14;;;;;;;;;21.50;20.75;;;;;29.56;40.75;98907.47;6182123;28;125072;-61
2021/06/19 06:42:17;;;;;;;;;22.00;21.00;;;;;29.64;40.83;98917.66;6174964;28;124665;-61
2021/06/19 06:45:21;;;;;;;;;25.00;22.00;;;;;29.68;40.96;98919.38;6169889;28;125593;-61
2021/06/19 06:48:28;;;;;;;;;20.00;19.00;;;;;29.67;39.55;98916.94;6185065;28;124640;-61
2021/06/19 06:51:34;;;;;;;;;20.60;20.00;;;;;29.73;39.63;98923.09;6185633;28;126269;-61
2021/06/19 06:54:39;;;;;;;;;19.00;18.40;;;;;29.74;40.13;98917.19;6180712;28;126417;-61
2021/06/19 06:57:42;;;;;;;;;19.00;18.00;;;;;29.66;40.24;98910.56;6184476;28;124142;-61
2021/06/19 07:00:45;;;;;;;;;21.00;19.00;;;;;29.73;40.32;98917.53;6185624;28;125989;-61
2021/06/19 07:03:54;;;;;;;;;20.40;19.00;;;;;29.73;40.34;98914.75;6181644;28;125005;-61
2021/06/19 07:06:58;;;;;;;;;18.80;17.40;;;;;29.93;40.92;98916.63;6180973;28;124584;-61
2021/06/19 07:10:01;;;;;;;;;21.00;19.00;;;;;29.88;39.78;98884.28;6167969;28;126147;-61
2021/06/19 07:13:04;;;;;;;;;19.60;19.00;;;;;30.25;40.07;98906.53;6173988;28;126307;-61
2021/06/19 07:16:07;;;;;;;;;21.40;18.00;;;;;30.40;40.32;98906.56;6173559;28;125223;-62
2021/06/19 07:19:12;;;;;;;;;20.20;18.20;;;;;30.35;39.42;98906.81;6176221;28;126057;-62
2021/06/19 07:22:15;;;;;;;;;20.00;18.00;;;;;30.31;39.94;98913.44;6166566;28;123734;-62
2021/06/19 07:25:19;;;;;;;;;20.00;18.67;;;;;30.46;39.92;98916.34;6182828;28;125891;-62
2021/06/19 07:28:23;;;;;;;;;20.00;18.00;;;;;30.56;40.09;98915.03;6182190;28;126378;-62
2021/06/19 07:31:27;;;;;;;;;21.00;19.00;;;;;29.98;40.41;98838.56;6180379;28;126998;-62
2021/06/19 07:34:31;;;;;;;;;20.20;18.80;;;;;30.65;39.69;98912.91;6162962;28;125191;-62
2021/06/19 07:37:35;;;;;;;;;19.00;17.60;;;;;30.92;39.81;98923.25;6182123;28;126600;-62
2021/06/19 07:40:38;;;;;;;;;19.25;18.50;;;;;30.93;38.86;98908.16;6178546;28;127164;-62
2021/06/19 07:43:43;;;;;;;;;22.00;20.40;;;;;31.02;39.39;98923.91;6171604;28;125069;-62
2021/06/19 07:46:49;;;;;;;;;21.20;20.00;;;;;31.05;39.09;98917.63;6173595;28;126014;-62
2021/06/19 07:49:54;;;;;;;;;22.00;21.00;;;;;31.21;39.03;98913.72;6170994;28;125419;-62
2021/06/19 07:52:57;;;;;;;;;19.00;18.50;;;;;31.19;38.68;98885.41;6172467;28;126979;-62
2021/06/19 07:56:01;;;;;;;;;18.40;18.00;;;;;31.38;39.00;98907.78;6176618;28;124077;-62
2021/06/19 07:59:05;;;;;;;;;19.00;18.00;;;;;31.51;38.78;98902.94;6177999;28;126355;-62
2021/06/19 08:02:08;;;;;;;;;17.00;16.00;;;;;31.66;38.54;98902.16;6172220;28;124325;-62
2021/06/19 08:05:14;;;;;;;;;16.40;15.60;;;;;31.91;37.93;98893.59;6181304;28;126120;-62
2021/06/19 08:08:17;;;;;;;;;15.00;14.40;;;;;32.16;37.51;98892.19;6165614;28;124741;-62
2021/06/19 08:11:21;;;;;;;;;15.00;15.00;;;;;32.33;37.07;98893.78;6168896;28;125876;-62
2021/06/19 08:14:24;;;;;;;;;19.00;17.00;;;;;32.37;37.93;98869.53;6185987;28;124932;-62
2021/06/19 08:17:27;;;;;;;;;12.00;12.00;;;;;32.90;36.01;98906.94;6186921;28;127134;-62
2021/06/19 08:20:32;;;;;;;;;12.00;11.00;;;;;32.91;34.89;98906.56;6176522;28;125054;-62
2021/06/19 08:23:35;;;;;;;;;10.00;10.00;;;;;33.07;34.72;98903.69;6188615;28;126047;-62
2021/06/19 08:26:39;;;;;;;;;11.00;10.60;;;;;32.90;34.14;98898.56;6186799;28;124554;-65
2021/06/19 08:29:42;;;;;;;;;10.00;9.80;;;;;33.02;35.14;98898.41;6187141;28;126542;-65
2021/06/19 08:32:46;;;;;;;;;10.25;10.25;;;;;33.19;35.21;98891.56;6188220;28;126165;-65
2021/06/19 08:35:51;;;;;;;;;9.00;8.60;;;;;33.05;33.79;98892.06;6188235;28;126556;-65
2021/06/19 08:38:54;;;;;;;;;12.40;10.40;;;;;33.26;34.14;98894.50;6187556;28;124969;-65
2021/06/19 08:41:58;;;;;;;;;13.00;12.00;;;;;33.11;34.46;98887.81;6187179;28;123887;-65
2021/06/19 08:45:02;;;;;;;;;10.00;9.00;;;;;33.00;34.24;98884.00;6187965;28;125076;-65
2021/06/19 08:48:07;;;;;;;;;13.00;12.00;;;;;33.05;34.58;98876.13;6186661;28;123685;-65
2021/06/19 08:51:12;;;;;;;;;10.60;10.60;;;;;33.37;34.75;98878.72;6164690;28;124663;-65
2021/06/19 08:54:15;;;;;;;;;13.40;12.00;;;;;33.72;33.83;98873.72;6178772;28;124779;-65
2021/06/19 08:57:18;;;;;;;;;10.00;10.00;;;;;33.99;33.18;98860.56;6187528;28;124278;-65
2021/06/19 09:00:22;;;;;;;;;9.00;9.00;;;;;33.96;32.79;98866.94;6188055;28;124976;-65
2021/06/19 09:03:28;;;;;;;;;11.00;10.60;;;;;33.52;32.61;98880.59;6183944;28;126102;-65
2021/06/19 09:06:33;;;;;;;;;10.00;8.50;;;;;33.53;32.13;98841.06;6169085;28;125611;-65
2021/06/19 09:09:37;;;;;;;;;8.00;7.00;;;;;33.85;31.32;98865.94;6187135;28;124761;-65
2021/06/19 09:12:40;;;;;;;;;9.00;9.00;;;;;33.92;31.34;98861.25;6187365;28;127147;-65
2021/06/19 09:15:45;;;;;;;;;7.00;6.75;;;;;34.08;30.72;98863.06;6180575;28;126076;-65
2021/06/19 09:18:49;;;;;;;;;7.00;7.00;;;;;34.14;31.04;98853.19;6187011;28;124873;-65
2021/06/19 09:22:12;;;;;;;;;8.40;8.00;;;;;34.47;31.34;98860.81;6169555;28;125804;-65
2021/06/19 09:25:16;;;;;;;;;7.00;7.00;;;;;34.85;30.43;98863.31;6187573;28;126044;-65
2021/06/19 09:28:20;;;;;;;;;7.00;7.00;;;;;35.00;28.53;98867.06;6186836;28;124719;-65
2021/06/19 09:31:34;;;;;;;;;8.00;7.00;;;;;34.69;28.66;98852.34;6171653;28;124720;-65
2021/06/19 09:34:40;;;;;;;;;8.00;7.00;;;;;34.67;28.52;98835.13;6185905;28;125777;-65
2021/06/19 09:37:46;;;;;;;;;7.00;6.40;;;;;34.88;29.37;98836.53;6185640;28;124101;-65
2021/06/19 09:40:50;;;;;;;;;8.40;8.00;;;;;35.03;30.30;98847.50;6186060;28;123700;-65
2021/06/19 09:43:53;;;;;;;;;8.25;8.00;;;;;35.14;28.02;98853.19;6185197;28;124769;-65
2021/06/19 09:46:57;;;;;;;;;8.00;7.00;;;;;35.43;28.36;98854.31;6183831;28;125549;-65
2021/06/19 09:50:07;;;;;;;;;6.00;6.00;;;;;35.32;27.85;98842.19;6186762;28;124795;-65
2021/06/19 09:53:15;;;;;;;;;8.00;8.00;;;;;35.64;27.55;98843.25;6186819;28;125617;-65
2021/06/19 09:56:19;;;;;;;;;9.50;8.00;;;;;35.77;27.79;98855.81;6185027;28;125907;-66
2021/06/19 09:59:28;;;;;;;;;6.00;6.00;;;;;35.95;26.41;98851.09;6184875;28;125390;-65
2021/06/19 10:02:31;;;;;;;;;8.50;8.00;;;;;35.60;27.13;98839.59;6172752;28;125942;-65
2021/06/19 10:05:34;;;;;;;;;8.00;8.00;;;;;35.57;26.96;98843.19;6185075;28;126334;-65
2021/06/19 10:08:39;;;;;;;;;8.20;7.20;;;;;35.14;27.67;98839.97;6186862;28;125670;-65
2021/06/19 10:11:43;;;;;;;;;8.60;8.00;;;;;35.24;27.93;98830.09;6183604;28;124961;-65
2021/06/19 10:14:48;;;;;;;;;9.00;8.60;;;;;34.91;28.35;98847.75;6157516;28;123691;-65
2021/06/19 10:17:53;;;;;;;;;8.00;7.00;;;;;35.02;28.43;98839.47;6173437;28;125907;-65
2021/06/19 10:20:57;;;;;;;;;9.00;8.60;;;;;34.47;29.35;98802.03;6174533;28;125408;-65
2021/06/19 10:24:01;;;;;;;;;7.75;7.00;;;;;34.90;29.01;98836.94;6174563;28;126918;-65
2021/06/19 10:27:05;;;;;;;;;10.60;10.00;;;;;35.13;29.41;98827.19;6186085;28;125841;-65
2021/06/19 10:30:11;;;;;;;;;8.40;8.00;;;;;35.31;29.32;98826.56;6186390;28;125591;-65
2021/06/19 10:33:28;;;;;;;;;8.00;8.00;;;;;35.48;28.99;98818.28;6184904;28;125485;-65
2021/06/19 10:36:38;;;;;;;;;10.00;9.00;;;;;36.00;28.74;98836.72;6171206;28;126018;-65
2021/06/19 10:39:45;;;;;;;;;8.00;8.00;;;;;35.86;27.59;98827.41;6184508;28;123952;-65
2021/06/19 10:42:49;;;;;;;;;8.00;7.20;;;;;35.87;28.25;98810.16;6183925;28;127755;-65
2021/06/19 10:45:52;;;;;;;;;8.00;8.00;;;;;36.07;28.34;98827.50;6185459;28;126038;-65
2021/06/19 10:48:56;;;;;;;;;8.25;8.25;;;;;36.20;28.31;98820.41;6184412;28;123720;-65
2021/06/19 10:52:28;;;;;;;;;9.00;8.00;;;;;35.84;27.62;98821.38;6186289;28;96782;-65
2021/06/19 10:55:33;;;;;;;;;7.20;7.00;;;;;35.89;28.41;98812.56;6174250;28;124616;-65
2021/06/19 10:58:36;;;;;;;;;6.00;6.00;;;;;36.11;28.95;98811.50;6181567;28;125067;-65
2021/06/19 11:01:43;;;;;;;;;7.00;7.00;;;;;36.45;27.82;98814.91;6185680;28;125977;-65
2021/06/19 11:04:46;;;;;;;;;9.00;8.40;;;;;36.52;27.99;98814.09;6170116;28;125052;-66
2021/06/19 11:07:57;;;;;;;;;7.20;7.00;;;;;36.43;27.98;98803.25;6174839;28;124138;-66
2021/06/19 11:11:01;;;;;;;;;7.60;7.00;;;;;36.27;27.34;98797.16;6170932;28;126152;-66
2021/06/19 11:14:05;;;;;;;;;7.25;7.00;;;;;36.20;27.78;98799.94;6158034;28;124096;-66
2021/06/19 11:17:09;;;;;;;;;7.80;7.80;;;;;36.29;27.59;98791.97;6184482;28;125130;-67
2021/06/19 11:20:24;;;;;;;;;8.25;8.25;;;;;36.42;27.72;98790.41;6184908;28;124858;-67
2021/06/19 11:23:27;;;;;;;;;10.00;9.00;;;;;36.67;28.40;98782.88;6183582;28;125748;-67
2021/06/19 11:26:51;;;;;;;;;8.00;8.00;;;;;36.88;27.82;98779.31;6185183;28;126383;-67
2021/06/19 11:29:54;;;;;;;;;10.00;9.00;;;;;37.21;27.01;98775.34;6185269;28;124839;-67
2021/06/19 11:33:31;;;;;;;;;8.00;8.00;;;;;37.22;26.39;98788.19;6183585;28;126038;-67
2021/06/19 11:36:39;;;;;;;;;9.00;9.00;;;;;37.26;26.53;98778.56;6180356;28;123336;-67
2021/06/19 11:39:43;;;;;;;;;8.60;8.00;;;;;37.26;27.13;98778.56;6175354;28;126228;-67
2021/06/19 11:42:48;;;;;;;;;9.00;8.60;;;;;37.40;27.08;98780.53;6184942;28;126501;-67
2021/06/19 11:45:59;;;;;;;;;9.00;9.00;;;;;37.18;26.87;98765.72;6189176;28;124644;-67
2021/06/19 11:49:08;;;;;;;;;8.00;8.00;;;;;36.95;26.52;98765.25;6187684;28;126178;-67
2021/06/19 11:52:27;;;;;;;;;9.00;9.00;;;;;37.24;27.73;98760.50;6187708;28;126343;-67
2021/06/19 11:55:31;;;;;;;;;8.75;8.75;;;;;37.25;26.75;98759.25;6188568;28;125786;-67
2021/06/19 11:58:43;;;;;;;;;8.00;7.00;;;;;37.42;27.10;98755.66;6187313;28;124896;-67
2021/06/19 12:01:49;;;;;;;;;9.00;8.00;;;;;37.39;25.52;98719.09;6187561;28;124687;-67
2021/06/19 12:04:52;;;;;;;;;10.00;9.00;;;;;37.66;26.19;98737.13;6187103;28;124725;-67
2021/06/19 12:07:56;;;;;;;;;9.00;8.00;;;;;37.57;25.79;98746.00;6186855;28;124996;-67
2021/06/19 12:10:59;;;;;;;;;7.00;7.00;;;;;37.36;25.65;98748.81;6169819;28;124779;-67
2021/06/19 12:14:21;;;;;;;;;9.00;8.00;;;;;37.34;27.11;98751.22;6185544;28;125877;-67
2021/06/19 12:17:25;;;;;;;;;9.00;9.00;;;;;37.42;26.82;98752.03;6172774;28;124801;-67
2021/06/19 12:20:29;;;;;;;;;9.00;9.00;;;;;37.26;25.49;98735.56;6171099;28;126406;-67
2021/06/19 12:23:34;;;;;;;;;10.00;9.40;;;;;37.40;26.38;98757.25;6187331;28;125845;-67
2021/06/19 12:26:37;;;;;;;;;8.00;7.50;;;;;37.26;26.01;98758.06;6188397;28;124607;-67
2021/06/19 12:29:44;;;;;;;;;9.00;8.00;;;;;37.55;25.67;98739.97;6186907;28;125200;-67
2021/06/19 12:32:48;;;;;;;;;9.00;9.00;;;;;37.67;26.34;98753.63;6188413;28;125851;-67
2021/06/19 12:35:52;;;;;;;;;9.00;8.75;;;;;37.63;25.79;98737.97;6188422;28;124250;-67
2021/06/19 12:38:57;;;;;;;;;8.40;8.40;;;;;37.57;25.79;98742.38;6188527;28;124665;-67
2021/06/19 12:42:01;;;;;;;;;8.60;8.00;;;;;37.64;25.99;98751.59;6187170;28;126303;-67
2021/06/19 12:45:12;;;;;;;;;8.80;8.80;;;;;37.74;25.56;98742.34;6188587;28;125220;-67
2021/06/19 12:48:22;;;;;;;;;9.75;8.75;;;;;37.76;25.29;98744.75;6187865;28;124562;-67
2021/06/19 12:51:33;;;;;;;;;9.00;9.00;;;;;37.68;25.57;98748.81;6171169;28;126555;-67
2021/06/19 12:54:36;;;;;;;;;9.50;9.00;;;;;37.54;25.36;98741.16;6187308;28;126964;-67
2021/06/19 12:57:40;;;;;;;;;9.00;9.00;;;;;37.16;25.70;98730.75;6187832;28;126086;-67
2021/06/19 13:00:48;;;;;;;;;8.50;8.25;;;;;37.29;26.76;98732.75;6187950;28;124818;-67
2021/06/19 13:03:53;;;;;;;;;8.00;8.00;;;;;37.30;26.13;98717.50;6175037;28;128049;-67
2021/06/19 13:07:05;;;;;;;;;7.00;7.00;;;;;37.17;26.48;98729.56;6168074;28;125630;-67
2021/06/19 13:10:09;;;;;;;;;8.00;8.00;;;;;37.19;26.39;98724.34;6186912;28;123121;-67
2021/06/19 13:13:14;;;;;;;;;9.00;9.00;;;;;37.17;26.16;98721.94;6188040;28;123940;-67
2021/06/19 13:16:29;;;;;;;;;10.00;9.00;;;;;37.08;26.65;98685.00;6188259;28;126355;-67
2021/06/19 13:19:33;;;;;;;;;10.00;10.00;;;;;37.17;26.18;98719.13;6172767;28;124802;-67
2021/06/19 13:22:37;;;;;;;;;8.25;8.00;;;;;37.07;26.61;98714.31;6187114;28;124025;-67
2021/06/19 13:25:59;;;;;;;;;8.00;8.00;;;;;37.21;26.73;98705.84;6188375;28;125815;-67
2021/06/19 13:29:07;;;;;;;;;8.75;8.75;;;;;37.09;26.85;98703.47;6187717;28;124562;-67
2021/06/19 13:32:12;;;;;;;;;7.00;7.00;;;;;36.82;26.69;98710.66;6187046;28;125021;-67
2021/06/19 13:35:15;;;;;;;;;9.25;9.00;;;;;36.71;27.28;98726.69;6170066;28;125084;-67
2021/06/19 13:38:18;;;;;;;;;10.20;10.00;;;;;36.71;27.48;98712.66;6186433;28;126609;-67
2021/06/19 13:41:29;;;;;;;;;8.80;8.80;;;;;36.98;27.72;98702.63;6171432;28;126379;-67
2021/06/19 13:44:37;;;;;;;;;8.00;8.00;;;;;37.32;27.31;98705.84;6187327;28;125929;-67
2021/06/19 13:47:42;;;;;;;;;10.00;9.00;;;;;37.03;26.38;98715.47;6187151;28;124595;-67
2021/06/19 13:50:45;;;;;;;;;7.60;7.60;;;;;36.81;27.20;98704.22;6185933;28;125758;-67
2021/06/19 13:53:50;;;;;;;;;11.00;9.00;;;;;36.70;27.52;98716.69;6187037;28;126217;-67
2021/06/19 13:56:54;;;;;;;;;8.50;8.00;;;;;36.57;27.16;98701.38;6186859;28;126548;-67
2021/06/19 13:59:57;;;;;;;;;9.80;9.00;;;;;36.57;27.50;98710.59;6185452;28;124238;-67
2021/06/19 14:03:02;;;;;;;;;9.00;8.60;;;;;36.47;27.63;98694.53;6180789;28;126281;-67
2021/06/19 14:06:11;;;;;;;;;8.00;8.00;;;;;36.33;27.34;98691.72;6165060;28;125868;-67